Time;durP1;ratioP1;P1;durP2;ratioP2;P2;SDS_P1;SDS_P2;PMS_P1;PMS_P2;Temp;Humidity;BMP_temperature;BMP_pressure;BME280_temperature;BME280_humidity;BME280_pressure;Samples;Min_cycle;Max_cycle;Signal;HPM_P1;HPM_P2
2022/02/12 00:00:37;;;;;;;5.45;3.67;;;20.90;54.20;;;;;;4990036;28;88335;-83
2022/02/12 00:03:03;;;;;;;6.22;3.75;;;20.90;54.10;;;;;;4989846;28;87527;-83
2022/02/12 00:05:29;;;;;;;7.50;3.92;;;20.90;54.20;;;;;;4989475;28;88051;-83
2022/02/12 00:07:56;;;;;;;5.30;3.72;;;20.90;54.20;;;;;;4989311;28;87803;-83
2022/02/12 00:10:23;;;;;;;6.00;3.92;;;20.90;54.10;;;;;;4989604;28;87897;-83
2022/02/12 00:12:49;;;;;;;4.53;3.35;;;20.90;54.90;;;;;;4989860;28;87735;-83
2022/02/12 00:15:15;;;;;;;5.38;3.72;;;20.90;54.20;;;;;;4988735;28;90881;-83
2022/02/12 00:17:42;;;;;;;3.83;2.85;;;20.90;54.10;;;;;;4988830;28;90138;-83
2022/02/12 00:20:08;;;;;;;6.25;4.07;;;20.90;54.00;;;;;;4990038;28;87936;-84
2022/02/12 00:22:34;;;;;;;5.32;3.75;;;20.90;54.00;;;;;;4989749;28;87083;-83
2022/02/12 00:24:59;;;;;;;5.45;3.88;;;20.90;54.00;;;;;;4989546;28;88847;-84
2022/02/12 00:27:25;;;;;;;5.35;3.53;;;20.90;54.00;;;;;;4989684;28;87724;-83
2022/02/12 00:30:09;;;;;;;5.40;3.28;;;20.80;53.90;;;;;;4989926;28;87849;-84
2022/02/12 00:32:35;;;;;;;5.43;3.53;;;20.80;53.90;;;;;;4988561;28;88308;-82
2022/02/12 00:35:01;;;;;;;4.90;3.65;;;20.80;53.70;;;;;;4989216;28;88544;-83
2022/02/12 00:37:28;;;;;;;6.43;3.72;;;20.80;53.70;;;;;;4987066;28;91662;-83
2022/02/12 00:39:54;;;;;;;6.47;4.07;;;20.80;53.50;;;;;;4988669;28;87572;-81
2022/02/12 00:42:22;;;;;;;5.40;3.78;;;20.80;53.70;;;;;;4989650;28;87180;-83
2022/02/12 00:44:48;;;;;;;6.97;4.18;;;20.80;53.50;;;;;;4988243;28;90475;-84
2022/02/12 00:47:13;;;;;;;6.70;3.85;;;20.80;53.50;;;;;;4989659;28;87660;-83
2022/02/12 00:49:39;;;;;;;7.47;3.83;;;20.80;53.40;;;;;;4989308;28;88624;-83
2022/02/12 00:52:05;;;;;;;6.85;4.00;;;20.80;53.50;;;;;;4989824;28;87586;-83
2022/02/12 00:54:32;;;;;;;4.75;3.53;;;20.70;53.50;;;;;;4989336;28;86916;-83
2022/02/12 00:56:59;;;;;;;6.53;3.72;;;20.80;53.50;;;;;;4989634;28;87721;-83
2022/02/12 00:59:25;;;;;;;5.35;3.78;;;20.70;53.40;;;;;;4989732;28;87508;-82
2022/02/12 01:01:51;;;;;;;5.15;3.80;;;20.70;53.20;;;;;;4988350;28;87332;-83
2022/02/12 01:04:26;;;;;;;5.47;3.70;;;20.70;53.30;;;;;;4989593;28;87846;-84
2022/02/12 01:06:52;;;;;;;4.80;3.53;;;20.70;53.80;;;;;;4988043;28;89206;-83
2022/02/12 01:09:17;;;;;;;8.25;4.28;;;20.70;53.40;;;;;;4989328;28;87845;-84
2022/02/12 01:11:43;;;;;;;4.75;3.15;;;20.70;53.20;;;;;;4988935;28;87824;-83
2022/02/12 01:14:10;;;;;;;5.88;3.55;;;20.70;53.20;;;;;;4989328;28;88238;-82
2022/02/12 01:16:35;;;;;;;5.35;3.67;;;20.70;53.30;;;;;;4992512;28;89314;-83
2022/02/12 01:19:01;;;;;;;6.53;3.83;;;20.70;53.20;;;;;;4992966;28;87790;-84
2022/02/12 01:21:26;;;;;;;6.78;3.92;;;20.70;53.20;;;;;;4992113;28;87922;-83
2022/02/12 01:23:52;;;;;;;6.40;3.72;;;20.70;53.20;;;;;;4992160;28;88023;-83
2022/02/12 01:26:18;;;;;;;5.45;3.75;;;20.60;53.00;;;;;;4992789;28;87473;-83
2022/02/12 01:28:43;;;;;;;5.78;3.50;;;20.60;53.10;;;;;;4993185;28;87673;-83
2022/02/12 01:31:09;;;;;;;5.82;4.03;;;20.60;53.20;;;;;;4992498;28;86788;-81
2022/02/12 01:33:34;;;;;;;5.47;3.65;;;20.60;53.00;;;;;;4992508;28;88130;-83
2022/02/12 01:36:00;;;;;;;5.70;3.70;;;20.60;53.10;;;;;;4991754;28;87500;-83
2022/02/12 01:38:28;;;;;;;7.40;4.10;;;20.60;53.00;;;;;;4991315;28;88239;-81
2022/02/12 01:40:57;;;;;;;4.35;3.67;;;20.60;53.00;;;;;;4990183;28;89667;-82
2022/02/12 01:43:24;;;;;;;6.18;3.95;;;20.60;53.00;;;;;;4991958;28;87781;-82
2022/02/12 01:45:50;;;;;;;4.75;3.42;;;20.60;52.90;;;;;;4992348;28;87800;-83
2022/02/12 01:48:18;;;;;;;5.80;4.10;;;20.60;53.00;;;;;;4992697;28;86992;-83
2022/02/12 01:50:49;;;;;;;4.68;3.63;;;20.60;52.90;;;;;;4992861;28;87689;-83
2022/02/12 01:53:15;;;;;;;5.72;4.20;;;20.60;52.90;;;;;;4993016;28;87776;-83
2022/02/12 01:55:41;;;;;;;5.70;3.58;;;20.50;52.70;;;;;;4992272;28;87435;-82
2022/02/12 01:58:09;;;;;;;4.80;3.63;;;20.50;52.80;;;;;;4991314;28;87538;-81
2022/02/12 02:00:36;;;;;;;7.40;4.00;;;20.50;53.40;;;;;;4991372;28;87630;-83
2022/02/12 02:03:01;;;;;;;6.50;4.18;;;20.50;53.00;;;;;;4992008;28;89185;-83
2022/02/12 02:05:27;;;;;;;6.20;4.00;;;20.50;52.90;;;;;;4992469;28;88797;-83
2022/02/12 02:07:54;;;;;;;4.70;3.65;;;20.50;52.90;;;;;;4991854;28;87244;-83
2022/02/12 02:10:20;;;;;;;6.10;3.90;;;20.50;52.80;;;;;;4989330;28;89606;-83
2022/02/12 02:12:45;;;;;;;5.32;3.78;;;20.50;52.80;;;;;;4991883;28;87795;-82
2022/02/12 02:15:11;;;;;;;5.45;4.00;;;20.50;52.80;;;;;;4992315;28;87627;-81
2022/02/12 02:17:36;;;;;;;5.85;3.65;;;20.40;52.70;;;;;;4991117;28;86993;-82
2022/02/12 02:20:06;;;;;;;4.50;3.63;;;20.40;52.80;;;;;;4990434;28;86956;-83
2022/02/12 02:22:53;;;;;;;4.25;3.78;;;20.40;52.70;;;;;;4991476;28;88112;-82
2022/02/12 02:25:19;;;;;;;4.57;3.83;;;20.40;52.60;;;;;;4990547;28;87505;-83
2022/02/12 02:27:45;;;;;;;4.47;3.78;;;20.40;52.60;;;;;;4991062;28;88791;-81
2022/02/12 02:30:13;;;;;;;4.72;3.65;;;20.40;52.60;;;;;;4991470;28;87844;-83
2022/02/12 02:32:41;;;;;;;4.70;3.47;;;20.40;52.60;;;;;;4991695;28;88049;-82
2022/02/12 02:35:07;;;;;;;5.82;3.80;;;20.40;52.50;;;;;;4990128;28;90260;-81
2022/02/12 02:37:33;;;;;;;6.00;3.92;;;20.40;52.50;;;;;;4992486;28;87811;-83
2022/02/12 02:39:58;;;;;;;6.20;4.20;;;20.40;52.40;;;;;;4992069;28;87023;-82
2022/02/12 02:42:24;;;;;;;5.45;3.97;;;20.40;52.40;;;;;;4991439;28;88102;-82
2022/02/12 02:44:50;;;;;;;4.68;3.65;;;20.40;52.50;;;;;;4992299;28;87267;-81
2022/02/12 02:47:40;;;;;;;4.90;3.40;;;20.40;52.40;;;;;;4991429;28;87637;-81
2022/02/12 02:56:00;;;;;;;5.15;4.00;;;20.30;52.30;;;;;;4992138;28;88133;-81
2022/02/12 02:58:38;;;;;;;5.03;3.58;;;20.30;52.40;;;;;;4990092;28;87132;-80
2022/02/12 03:01:14;;;;;;;5.25;3.83;;;20.30;52.40;;;;;;4991701;28;87712;-81
2022/02/12 03:03:42;;;;;;;5.35;4.22;;;20.30;52.30;;;;;;4989921;28;89090;-82
2022/02/12 03:06:09;;;;;;;6.00;4.13;;;20.30;52.30;;;;;;4990822;28;87471;-81
2022/02/12 03:08:36;;;;;;;5.28;3.63;;;20.30;52.20;;;;;;4991403;28;88027;-82
2022/02/12 03:11:02;;;;;;;6.18;3.63;;;20.30;52.30;;;;;;4989861;28;89565;-82
2022/02/12 03:13:28;;;;;;;5.18;3.92;;;20.30;52.10;;;;;;4991051;28;88082;-81
2022/02/12 03:15:54;;;;;;;4.57;3.67;;;20.20;52.20;;;;;;4991287;28;88188;-80
2022/02/12 03:18:20;;;;;;;4.38;3.50;;;20.20;52.10;;;;;;4991387;28;88650;-82
2022/02/12 03:20:45;;;;;;;6.22;4.20;;;20.20;52.10;;;;;;4991593;28;87770;-82
2022/02/12 03:23:11;;;;;;;5.15;3.60;;;20.20;52.30;;;;;;4991420;28;88130;-81
2022/02/12 03:25:37;;;;;;;6.28;3.78;;;20.30;52.30;;;;;;4989509;28;91065;-82
2022/02/12 03:28:12;;;;;;;4.93;3.78;;;20.30;51.90;;;;;;4991526;28;86929;-80
2022/02/12 03:30:39;;;;;;;5.32;3.83;;;20.20;52.00;;;;;;4991082;28;86974;-82
2022/02/12 03:33:06;;;;;;;5.28;4.00;;;20.20;52.10;;;;;;4990434;28;87960;-82
2022/02/12 03:35:33;;;;;;;5.32;3.65;;;20.20;52.00;;;;;;4988221;28;88709;-81
2022/02/12 03:38:10;;;;;;;5.15;3.95;;;20.20;51.90;;;;;;4990156;28;87772;-82
2022/02/12 03:40:39;;;;;;;5.53;4.10;;;20.20;52.00;;;;;;4990121;28;87779;-83
2022/02/12 03:43:05;;;;;;;5.07;4.05;;;20.20;51.90;;;;;;4987843;28;92106;-82
2022/02/12 03:45:32;;;;;;;5.53;3.55;;;20.20;51.80;;;;;;4988405;28;91344;-82
2022/02/12 03:47:57;;;;;;;6.53;3.90;;;20.10;51.80;;;;;;4990916;28;87882;-82
2022/02/12 03:50:23;;;;;;;5.35;3.75;;;20.10;51.80;;;;;;4991076;28;87621;-81
2022/02/12 03:52:51;;;;;;;6.13;4.18;;;20.10;51.80;;;;;;4989871;28;87619;-81
2022/02/12 03:55:17;;;;;;;4.95;3.67;;;20.10;51.80;;;;;;4990268;28;87762;-81
2022/02/12 03:57:44;;;;;;;4.43;3.60;;;20.20;51.70;;;;;;4990843;28;87123;-80
2022/02/12 04:00:14;;;;;;;5.90;3.95;;;20.10;51.80;;;;;;4990929;28;86791;-82
2022/02/12 04:02:42;;;;;;;5.55;3.92;;;20.10;51.80;;;;;;4989947;28;87595;-81
2022/02/12 04:05:10;;;;;;;5.78;3.67;;;20.10;51.80;;;;;;4989610;28;88009;-81
2022/02/12 04:07:40;;;;;;;5.30;3.58;;;20.10;51.80;;;;;;4989595;28;89166;-81
2022/02/12 04:10:10;;;;;;;5.88;4.00;;;20.10;51.70;;;;;;4990363;28;87074;-81
2022/02/12 04:12:36;;;;;;;5.30;3.75;;;20.10;51.60;;;;;;5005568;28;89880;-81
2022/02/12 04:15:02;;;;;;;5.00;3.92;;;20.10;51.60;;;;;;4990603;28;87713;-81
2022/02/12 04:17:34;;;;;;;4.57;3.75;;;20.10;51.50;;;;;;4989653;28;87701;-82
2022/02/12 04:20:02;;;;;;;3.80;3.25;;;20.10;51.60;;;;;;4988866;28;87565;-83
2022/02/12 04:22:29;;;;;;;5.38;3.92;;;20.00;51.60;;;;;;4989133;28;87717;-82
2022/02/12 04:24:55;;;;;;;5.43;3.70;;;20.10;51.60;;;;;;4990620;28;87443;-81
2022/02/12 04:27:20;;;;;;;4.97;3.95;;;20.10;51.50;;;;;;4989946;28;87558;-82
2022/02/12 04:29:46;;;;;;;5.55;3.70;;;20.00;51.50;;;;;;4989471;28;87058;-81
2022/02/12 04:32:22;;;;;;;5.32;3.80;;;20.00;51.60;;;;;;4987300;28;91908;-83
2022/02/12 04:34:49;;;;;;;4.35;3.72;;;20.00;51.50;;;;;;4988097;28;90740;-80
2022/02/12 04:37:15;;;;;;;4.47;3.67;;;20.00;51.50;;;;;;4990223;28;87188;-81
2022/02/12 04:39:40;;;;;;;5.20;3.83;;;20.00;51.60;;;;;;4989567;28;87914;-82
2022/02/12 04:42:11;;;;;;;5.85;3.97;;;20.00;51.50;;;;;;4988598;28;87534;-83
2022/02/12 04:44:45;;;;;;;4.90;3.67;;;20.00;51.50;;;;;;4989256;28;87265;-82
2022/02/12 04:47:11;;;;;;;6.45;3.95;;;20.00;51.40;;;;;;4989960;28;87259;-82
2022/02/12 04:49:38;;;;;;;4.53;3.42;;;20.00;51.40;;;;;;4989333;28;86361;-82
2022/02/12 04:52:05;;;;;;;4.75;3.75;;;20.00;51.40;;;;;;4989174;28;87783;-81
2022/02/12 04:54:32;;;;;;;5.03;3.85;;;20.00;51.40;;;;;;4989155;28;87952;-82
2022/02/12 04:56:57;;;;;;;3.67;3.30;;;19.90;51.30;;;;;;4989835;28;88615;-82
2022/02/12 04:59:24;;;;;;;5.20;4.15;;;20.00;51.30;;;;;;4989008;28;86908;-81
2022/02/12 05:01:52;;;;;;;5.13;3.78;;;19.90;51.30;;;;;;4989293;28;87438;-80
2022/02/12 05:04:27;;;;;;;5.78;3.60;;;19.90;51.20;;;;;;4988774;28;87970;-80
2022/02/12 05:06:53;;;;;;;5.18;3.63;;;19.90;51.20;;;;;;4987870;28;87611;-79
2022/02/12 05:09:19;;;;;;;4.68;3.50;;;19.90;52.00;;;;;;4989929;28;86996;-79
2022/02/12 05:11:47;;;;;;;4.97;3.40;;;19.90;51.20;;;;;;4987735;28;90246;-80
2022/02/12 05:14:14;;;;;;;4.82;3.50;;;19.90;51.40;;;;;;4989947;28;87479;-81
2022/02/12 05:16:40;;;;;;;4.65;3.10;;;19.90;51.40;;;;;;4989809;28;87914;-81
2022/02/12 05:19:06;;;;;;;4.88;3.58;;;19.90;51.40;;;;;;4989197;28;87886;-81
2022/02/12 05:21:32;;;;;;;4.80;3.42;;;19.90;51.30;;;;;;4988916;28;88822;-80
2022/02/12 05:23:58;;;;;;;5.43;3.97;;;19.90;51.30;;;;;;4988925;28;89106;-81
2022/02/12 05:26:24;;;;;;;6.15;4.15;;;19.90;51.60;;;;;;4989240;28;87957;-80
2022/02/12 05:28:49;;;;;;;7.15;4.00;;;19.90;51.30;;;;;;4989432;28;86925;-80
2022/02/12 05:31:15;;;;;;;4.72;3.45;;;19.80;51.10;;;;;;4989542;28;88197;-80
2022/02/12 05:33:41;;;;;;;5.28;3.80;;;19.90;51.20;;;;;;4988603;28;87880;-81
2022/02/12 05:36:10;;;;;;;5.40;3.78;;;19.80;51.10;;;;;;4988257;28;87302;-79
2022/02/12 05:38:39;;;;;;;3.88;3.38;;;19.80;51.20;;;;;;4990187;28;86965;-80
2022/02/12 05:41:26;;;;;;;4.43;3.77;;;19.80;51.30;;;;;;4989654;28;87755;-80
2022/02/12 05:43:51;;;;;;;4.10;3.33;;;19.80;51.30;;;;;;4988253;28;88351;-79
2022/02/12 05:46:17;;;;;;;4.05;3.55;;;19.80;51.20;;;;;;4987520;28;88638;-81
2022/02/12 05:48:43;;;;;;;3.70;3.20;;;19.80;51.30;;;;;;4989112;28;87365;-80
2022/02/12 05:51:09;;;;;;;4.07;3.22;;;19.80;51.10;;;;;;4988288;28;88069;-79
2022/02/12 05:53:35;;;;;;;5.35;3.70;;;19.80;51.20;;;;;;4987421;28;89843;-80
2022/02/12 05:56:00;;;;;;;5.22;3.80;;;19.80;51.30;;;;;;4989413;28;87238;-80
2022/02/12 05:58:26;;;;;;;5.90;3.30;;;19.70;51.00;;;;;;4989463;28;87661;-80
2022/02/12 06:00:52;;;;;;;4.93;3.72;;;19.70;51.10;;;;;;4990848;28;88160;-81
2022/02/12 06:03:18;;;;;;;4.93;3.53;;;19.70;51.00;;;;;;4992871;28;87412;-79
2022/02/12 06:05:45;;;;;;;6.47;3.75;;;19.70;51.00;;;;;;4992789;28;87572;-81
2022/02/12 06:08:10;;;;;;;5.30;3.53;;;19.70;51.00;;;;;;4992492;28;87069;-83
2022/02/12 06:10:36;;;;;;;5.30;3.33;;;19.80;51.10;;;;;;4991407;28;88901;-79
2022/02/12 06:13:02;;;;;;;5.05;3.30;;;19.70;51.00;;;;;;4992093;28;88359;-80
2022/02/12 06:15:29;;;;;;;4.07;3.35;;;19.70;51.00;;;;;;4992289;28;88233;-78
2022/02/12 06:17:56;;;;;;;4.93;3.42;;;19.80;51.10;;;;;;4991622;28;87565;-80
2022/02/12 06:20:31;;;;;;;4.70;3.17;;;19.80;51.10;;;;;;4989311;28;87480;-81
2022/02/12 06:22:58;;;;;;;3.72;3.30;;;19.70;51.10;;;;;;4989983;28;89952;-79
2022/02/12 06:25:24;;;;;;;4.70;3.42;;;19.70;51.00;;;;;;4992845;28;87417;-80
2022/02/12 06:27:50;;;;;;;3.67;3.17;;;19.70;51.00;;;;;;4992986;28;86986;-81
2022/02/12 06:30:16;;;;;;;5.85;3.35;;;19.70;51.10;;;;;;4990034;28;89246;-82
2022/02/12 06:32:42;;;;;;;4.38;3.10;;;19.70;51.00;;;;;;4991023;28;88125;-79
2022/02/12 06:35:08;;;;;;;4.60;3.42;;;19.70;51.00;;;;;;4991004;28;88729;-80
2022/02/12 06:37:34;;;;;;;5.07;3.15;;;19.70;51.00;;;;;;4991902;28;88251;-78
2022/02/12 06:39:59;;;;;;;4.90;3.47;;;19.70;51.00;;;;;;4992349;28;87536;-81
2022/02/12 06:42:26;;;;;;;4.78;3.10;;;19.70;50.90;;;;;;4990865;28;87793;-80
2022/02/12 06:44:52;;;;;;;3.85;3.00;;;19.70;51.00;;;;;;4991627;28;87155;-80
2022/02/12 06:47:17;;;;;;;4.25;3.28;;;19.60;50.80;;;;;;4991290;28;87916;-79
2022/02/12 06:49:44;;;;;;;4.10;3.55;;;19.60;50.90;;;;;;4990925;28;87798;-80
2022/02/12 06:52:10;;;;;;;4.20;3.25;;;19.60;51.00;;;;;;4991245;28;87640;-79
2022/02/12 06:54:36;;;;;;;6.20;3.30;;;19.60;50.80;;;;;;4991066;28;87053;-80
2022/02/12 06:57:02;;;;;;;3.15;2.65;;;19.70;50.90;;;;;;4991590;28;87466;-79
2022/02/12 06:59:35;;;;;;;5.90;3.50;;;19.60;50.80;;;;;;4991432;28;88846;-79
2022/02/12 07:02:01;;;;;;;5.70;3.30;;;19.60;50.80;;;;;;4991206;28;88776;-80
2022/02/12 07:04:29;;;;;;;3.30;2.83;;;19.60;50.70;;;;;;4991691;28;87488;-78
2022/02/12 07:06:54;;;;;;;4.18;3.20;;;19.60;50.80;;;;;;4991654;28;87776;-79
2022/02/12 07:09:20;;;;;;;7.25;3.83;;;19.70;51.10;;;;;;4991244;28;87855;-80
2022/02/12 07:11:46;;;;;;;4.75;3.58;;;19.70;51.70;;;;;;4989403;28;90783;-80
2022/02/12 07:14:12;;;;;;;4.78;3.70;;;19.70;51.60;;;;;;4990482;28;87007;-79
2022/02/12 07:16:38;;;;;;;6.15;3.47;;;19.70;51.90;;;;;;4991186;28;87018;-81
2022/02/12 07:19:04;;;;;;;4.97;3.53;;;19.70;52.00;;;;;;4989942;28;86979;-79
2022/02/12 07:21:31;;;;;;;4.07;3.22;;;19.80;51.90;;;;;;4990473;28;87714;-80
2022/02/12 07:23:56;;;;;;;3.65;3.05;;;19.90;51.80;;;;;;4991152;28;88334;-81
2022/02/12 07:26:22;;;;;;;3.88;2.80;;;19.90;51.90;;;;;;4989737;28;88016;-80
2022/02/12 07:31:40;;;;;;;4.88;3.33;;;20.00;52.10;;;;;;4988847;28;87030;-79
2022/02/12 07:34:24;;;;;;;5.30;3.28;;;20.00;52.00;;;;;;4989503;28;87124;-79
2022/02/12 07:37:09;;;;;;;3.45;2.88;;;20.10;52.00;;;;;;4989947;28;86971;-79
2022/02/12 07:39:34;;;;;;;4.22;2.92;;;20.10;51.90;;;;;;4991355;28;87308;-80
2022/02/12 07:42:18;;;;;;;5.30;3.17;;;20.10;51.80;;;;;;4990887;28;87342;-79
2022/02/12 07:44:44;;;;;;;6.35;3.08;;;20.10;51.90;;;;;;4992000;28;86997;-77
2022/02/12 07:47:28;;;;;;;3.60;2.75;;;20.10;51.80;;;;;;4989605;28;87576;-79
2022/02/12 07:49:55;;;;;;;5.30;3.13;;;20.10;51.60;;;;;;4988977;28;89682;-78
2022/02/12 07:52:58;;;;;;;3.33;2.72;;;20.10;51.70;;;;;;4989779;28;87276;-79
2022/02/12 07:55:42;;;;;;;4.60;2.83;;;20.00;51.60;;;;;;4990150;28;88272;-78
2022/02/12 08:00:52;;;;;;;5.38;3.08;;;20.10;51.30;;;;;;4990895;28;87430;-79
2022/02/12 08:03:18;;;;;;;6.20;3.08;;;20.00;51.30;;;;;;4993057;28;87786;-79
2022/02/12 08:05:43;;;;;;;4.72;2.70;;;20.00;51.30;;;;;;4990944;28;87992;-79
2022/02/12 08:08:28;;;;;;;5.90;3.17;;;20.00;51.40;;;;;;4991994;28;87275;-81
2022/02/12 08:13:38;;;;;;;4.72;2.88;;;20.00;51.90;;;;;;4991073;28;86946;-80
2022/02/12 08:16:22;;;;;;;9.55;3.38;;;20.00;51.70;;;;;;4990402;28;88880;-80
2022/02/12 08:18:48;;;;;;;9.50;3.88;;;20.10;51.90;;;;;;4990588;28;88095;-79
2022/02/12 08:21:14;;;;;;;15.77;4.22;;;20.00;51.80;;;;;;4991210;28;87784;-81
2022/02/12 08:23:39;;;;;;;26.77;7.35;;;20.00;51.60;;;;;;4987412;28;87453;-82
2022/02/12 08:26:09;;;;;;;14.98;4.30;;;20.10;50.80;;;;;;4989672;28;87476;-80
2022/02/12 08:28:37;;;;;;;11.23;4.40;;;20.10;51.30;;;;;;4989155;28;87981;-80
2022/02/12 08:36:53;;;;;;;16.90;4.78;;;20.20;52.00;;;;;;4989710;28;87589;-81
2022/02/12 08:39:19;;;;;;;13.30;4.40;;;20.20;52.00;;;;;;4989150;28;87523;-80
2022/02/12 08:42:04;;;;;;;11.57;4.10;;;20.20;52.00;;;;;;4988708;28;89604;-81
2022/02/12 08:44:29;;;;;;;20.70;5.13;;;20.30;52.20;;;;;;4989023;28;88461;-80
2022/02/12 08:46:55;;;;;;;15.90;5.05;;;20.30;52.20;;;;;;4990014;28;87146;-80
2022/02/12 08:49:21;;;;;;;17.67;5.32;;;20.30;52.40;;;;;;4989249;28;87298;-81
2022/02/12 08:51:47;;;;;;;19.92;5.32;;;20.40;52.40;;;;;;4983677;28;88428;-78
2022/02/12 08:54:14;;;;;;;17.13;5.03;;;20.40;52.30;;;;;;4986270;28;87591;-79
2022/02/12 08:56:41;;;;;;;13.90;4.63;;;20.40;52.40;;;;;;4991031;28;88449;-77
2022/02/12 08:59:08;;;;;;;15.63;4.60;;;20.40;52.70;;;;;;4990460;28;90207;-79
2022/02/12 09:01:37;;;;;;;12.25;4.35;;;20.50;52.70;;;;;;4988167;28;87606;-80
2022/02/12 09:04:13;;;;;;;12.23;4.88;;;20.50;52.70;;;;;;4991025;28;87882;-79
2022/02/12 09:06:40;;;;;;;15.57;4.97;;;20.50;52.00;;;;;;4988426;28;88897;-79
2022/02/12 09:09:09;;;;;;;15.18;4.82;;;20.50;52.20;;;;;;4989897;28;88436;-79
2022/02/12 09:11:38;;;;;;;;;;;20.50;52.60;;;;;;4971256;28;88374;-79
2022/02/12 09:14:04;;;;;;;16.85;4.75;;;20.50;52.50;;;;;;4978813;28;88123;-80
2022/02/12 09:16:30;;;;;;;14.55;4.40;;;20.50;52.20;;;;;;4989871;28;86986;-81
2022/02/12 09:18:55;;;;;;;21.25;5.13;;;20.50;51.90;;;;;;4988017;28;88653;-82
2022/02/12 09:21:23;;;;;;;12.00;4.47;;;20.50;52.30;;;;;;4990092;28;87907;-79
2022/02/12 09:23:49;;;;;;;15.18;5.10;;;20.50;52.20;;;;;;4990941;28;87562;-81
2022/02/12 09:26:15;;;;;;;16.85;5.03;;;20.50;52.40;;;;;;4989969;28;88331;-82
2022/02/12 09:28:42;;;;;;;11.88;4.10;;;20.50;51.40;;;;;;4991503;28;87741;-81
2022/02/12 09:31:07;;;;;;;16.23;4.55;;;20.60;51.80;;;;;;4990539;28;88827;-81
2022/02/12 09:33:33;;;;;;;14.00;4.63;;;20.50;51.50;;;;;;4991658;28;88359;-80
2022/02/12 09:35:58;;;;;;;13.30;4.63;;;20.50;52.60;;;;;;4994879;28;87391;-80
2022/02/12 09:38:28;;;;;;;18.92;4.45;;;20.50;52.20;;;;;;4997902;28;86956;-79
2022/02/12 09:41:01;;;;;;;18.55;4.55;;;20.60;52.30;;;;;;4997735;28;87004;-80
2022/02/12 09:43:28;;;;;;;13.32;4.88;;;20.50;52.20;;;;;;4996531;28;87668;-77
2022/02/12 09:46:17;;;;;;;12.50;4.25;;;20.50;52.20;;;;;;4996822;28;87982;-81
2022/02/12 09:48:46;;;;;;;14.07;4.80;;;20.50;52.20;;;;;;4995042;28;87001;-81
2022/02/12 09:51:13;;;;;;;15.70;4.78;;;20.50;52.30;;;;;;4993508;28;87814;-79
2022/02/12 09:53:38;;;;;;;15.52;4.28;;;20.50;52.00;;;;;;4993761;28;87592;-82
2022/02/12 09:56:04;;;;;;;13.23;4.50;;;20.50;52.10;;;;;;4993580;28;88721;-81
2022/02/12 09:58:30;;;;;;;12.93;4.72;;;20.60;52.00;;;;;;4995894;28;87630;-80
2022/02/12 10:00:55;;;;;;;12.07;4.43;;;20.60;52.10;;;;;;4995782;28;87796;-81
2022/02/12 10:03:21;;;;;;;15.38;4.80;;;20.60;51.90;;;;;;4994991;28;87632;-80
2022/02/12 10:05:54;;;;;;;13.07;4.15;;;20.60;51.90;;;;;;4995434;28;87691;-80
2022/02/12 10:08:21;;;;;;;12.45;4.35;;;20.60;51.40;;;;;;4997180;28;87028;-80
2022/02/12 10:10:49;;;;;;;10.15;3.92;;;20.60;51.70;;;;;;4995586;28;87570;-81
2022/02/12 10:13:32;;;;;;;11.57;4.15;;;20.60;51.70;;;;;;4996440;28;87311;-80
2022/02/12 10:16:01;;;;;;;15.73;4.53;;;20.60;51.80;;;;;;4996911;28;87516;-81
2022/02/12 10:18:32;;;;;;;13.35;3.92;;;20.60;51.60;;;;;;4997773;28;86861;-81
2022/02/12 10:20:59;;;;;;;17.60;4.80;;;20.70;53.40;;;;;;4997003;28;89187;-80
2022/02/12 10:23:30;;;;;;;14.30;4.85;;;20.60;51.50;;;;;;4995835;28;88713;-81
2022/02/12 10:26:07;;;;;;;19.08;5.63;;;20.60;50.50;;;;;;4997398;28;87158;-80
2022/02/12 10:28:34;;;;;;;15.02;5.25;;;20.70;49.20;;;;;;4996147;28;87120;-79
2022/02/12 10:31:00;;;;;;;12.10;4.35;;;20.60;50.20;;;;;;4997350;28;87902;-79
2022/02/12 10:33:29;;;;;;;11.48;4.28;;;20.60;50.40;;;;;;4997392;28;87552;-81
2022/02/12 10:35:59;;;;;;;15.07;4.47;;;20.60;50.80;;;;;;4997661;28;87044;-80
2022/02/12 10:38:28;;;;;;;12.70;4.47;;;20.60;51.10;;;;;;4995937;28;87053;-80
2022/02/12 10:41:11;;;;;;;11.53;4.40;;;20.60;50.40;;;;;;4996154;28;88282;-80
2022/02/12 10:43:39;;;;;;;18.10;4.85;;;20.70;50.30;;;;;;4993644;28;87855;-80
2022/02/12 10:46:13;;;;;;;14.10;4.68;;;20.70;50.60;;;;;;4994642;28;89077;-81
2022/02/12 10:48:40;;;;;;;9.27;3.95;;;20.70;50.80;;;;;;4994164;28;87430;-81
2022/02/12 10:51:14;;;;;;;10.30;3.88;;;20.70;51.50;;;;;;4992703;28;90615;-81
2022/02/12 10:54:06;;;;;;;24.48;5.80;;;20.70;50.80;;;;;;4994830;28;87637;-80
2022/02/12 10:56:51;;;;;;;49.00;12.38;;;20.60;50.90;;;;;;4995210;28;87007;-80
2022/02/12 10:59:25;;;;;;;70.95;18.58;;;20.60;51.90;;;;;;4993779;28;86837;-79
2022/02/12 11:01:52;;;;;;;49.30;13.93;;;20.60;49.00;;;;;;4990247;28;89351;-81
2022/02/12 11:04:18;;;;;;;58.10;14.88;;;20.60;47.70;;;;;;4991210;28;87641;-82
2022/02/12 11:06:46;;;;;;;52.22;14.43;;;20.60;47.70;;;;;;4990864;28;87558;-80
2022/02/12 11:09:13;;;;;;;53.55;15.18;;;20.60;48.00;;;;;;4990479;28;86936;-80
2022/02/12 11:11:38;;;;;;;40.88;12.40;;;20.60;48.60;;;;;;4988952;28;91755;-80
2022/02/12 11:14:06;;;;;;;49.90;12.85;;;20.60;49.80;;;;;;4990605;28;88561;-81
2022/02/12 11:16:34;;;;;;;30.85;8.35;;;20.70;49.40;;;;;;4990250;28;87014;-80
2022/02/12 11:19:01;;;;;;;25.88;7.60;;;20.70;43.20;;;;;;4990222;28;87396;-80
2022/02/12 11:21:27;;;;;;;40.97;12.45;;;20.70;41.60;;;;;;4990703;28;88367;-81
2022/02/12 11:24:01;;;;;;;38.60;11.52;;;20.70;45.50;;;;;;4990046;28;87993;-80
2022/02/12 11:26:27;;;;;;;33.75;11.55;;;20.70;47.50;;;;;;4989956;28;87383;-80
2022/02/12 11:28:53;;;;;;;35.80;10.05;;;20.70;48.20;;;;;;4990676;28;87208;-80
2022/02/12 11:31:27;;;;;;;34.72;10.93;;;20.70;49.20;;;;;;4989662;28;87733;-81
2022/02/12 11:34:02;;;;;;;39.03;11.00;;;20.70;49.70;;;;;;4990420;28;87665;-80
2022/02/12 11:36:28;;;;;;;34.33;10.63;;;20.70;50.20;;;;;;4990569;28;88557;-82
2022/02/12 11:39:11;;;;;;;36.13;11.15;;;20.70;51.30;;;;;;4990111;28;88024;-82
2022/02/12 11:41:38;;;;;;;30.25;10.25;;;20.70;51.00;;;;;;4989358;28;87556;-81
2022/02/12 11:44:04;;;;;;;32.58;10.45;;;20.70;51.30;;;;;;4989073;28;87835;-81
2022/02/12 11:46:54;;;;;;;28.38;10.23;;;20.70;51.60;;;;;;4990244;28;87026;-81
2022/02/12 11:49:36;;;;;;;31.15;9.75;;;20.70;51.50;;;;;;4991167;28;87974;-77
2022/02/12 11:52:31;;;;;;;28.52;9.70;;;20.70;50.60;;;;;;4991564;28;88160;-81
2022/02/12 11:54:57;;;;;;;29.35;9.38;;;20.70;50.40;;;;;;4990616;28;88738;-78
2022/02/12 11:57:26;;;;;;;30.80;10.23;;;20.70;49.60;;;;;;4991322;28;87842;-81
2022/02/12 12:00:01;;;;;;;31.47;8.80;;;20.70;50.10;;;;;;4988452;28;87905;-82
2022/02/12 12:02:43;;;;;;;28.73;9.68;;;20.70;49.90;;;;;;4988649;28;88826;-81
2022/02/12 12:05:13;;;;;;;31.45;9.48;;;20.80;50.90;;;;;;4990905;28;88367;-80
2022/02/12 12:08:01;;;;;;;26.45;9.25;;;20.70;50.40;;;;;;4990960;28;87851;-83
2022/02/12 12:10:33;;;;;;;23.15;8.52;;;20.70;50.80;;;;;;4990995;28;86946;-81
2022/02/12 12:13:26;;;;;;;30.50;10.13;;;20.70;51.10;;;;;;4990437;28;87636;-83
2022/02/12 12:16:11;;;;;;;29.27;9.38;;;20.70;51.70;;;;;;4989098;28;89034;-82
2022/02/12 12:18:45;;;;;;;26.05;9.02;;;20.70;51.50;;;;;;4989556;28;87577;-81
2022/02/12 12:21:21;;;;;;;30.02;9.02;;;20.70;51.50;;;;;;4988409;28;86742;-80
2022/02/12 12:23:58;;;;;;;23.70;9.18;;;20.80;51.80;;;;;;4989613;28;87771;-80
2022/02/12 12:26:38;;;;;;;28.02;9.13;;;20.80;52.10;;;;;;4989279;28;88158;-81
2022/02/12 12:31:54;;;;;;;27.65;8.95;;;20.80;52.20;;;;;;4987785;28;87496;-80
2022/02/12 12:34:22;;;;;;;24.23;7.95;;;20.80;51.40;;;;;;4990335;28;87812;-82
2022/02/12 12:36:50;;;;;;;22.17;8.07;;;20.80;51.80;;;;;;4989788;28;88020;-81
2022/02/12 12:39:16;;;;;;;22.48;7.57;;;20.80;50.70;;;;;;4990572;28;87591;-81
2022/02/12 12:41:45;;;;;;;25.45;7.78;;;20.80;48.30;;;;;;4989931;28;87379;-82
2022/02/12 12:44:18;;;;;;;25.25;7.75;;;20.80;48.20;;;;;;4989140;28;87859;-81
2022/02/12 12:46:49;;;;;;;24.20;8.20;;;20.80;49.00;;;;;;4989853;28;87247;-78
2022/02/12 12:49:33;;;;;;;23.30;7.35;;;20.80;49.30;;;;;;4992282;28;87974;-80
2022/02/12 12:52:01;;;;;;;21.13;6.82;;;20.80;50.00;;;;;;4985408;28;88483;-83
2022/02/12 12:54:39;;;;;;;25.85;7.35;;;20.80;48.30;;;;;;4987591;28;88796;-81
2022/02/12 12:57:05;;;;;;;22.13;7.38;;;20.80;49.40;;;;;;4989417;28;88113;-81
2022/02/12 12:59:32;;;;;;;20.95;7.72;;;20.80;49.50;;;;;;4987113;28;87638;-81
2022/02/12 13:02:03;;;;;;;18.92;7.15;;;20.80;49.50;;;;;;4989097;28;87500;-80
2022/02/12 13:04:45;;;;;;;24.15;6.88;;;20.80;49.80;;;;;;4989566;28;87530;-80
2022/02/12 13:07:15;;;;;;;23.17;7.38;;;20.80;49.90;;;;;;4988003;28;87430;-80
2022/02/12 13:09:44;;;;;;;17.67;6.40;;;20.80;49.90;;;;;;4990031;28;88082;-80
2022/02/12 13:12:33;;;;;;;18.95;6.30;;;20.80;49.90;;;;;;4992035;28;86636;-79
2022/02/12 13:15:01;;;;;;;23.35;5.82;;;20.80;49.70;;;;;;4994458;28;88141;-79